createdAt,value
2016-09-14T00:00:17.720Z,73.51
2016-09-14T00:00:59.889Z,74.13
2016-09-14T00:01:40.427Z,73.65
2016-09-14T00:02:20.981Z,73.94
2016-09-14T00:03:01.544Z,74.22
2016-09-14T00:03:42.139Z,74.51
2016-09-14T00:04:23.604Z,74.8
2016-09-14T00:05:04.270Z,74.38
2016-09-14T00:05:48.359Z,74.86
2016-09-14T00:06:28.865Z,74.96
2016-09-14T00:07:12.247Z,75.34
2016-09-14T00:07:52.765Z,75.34
2016-09-14T00:08:33.306Z,75.15
2016-09-14T00:09:13.826Z,75.34
2016-09-14T00:09:54.341Z,75.73
2016-09-14T00:10:34.990Z,75.82
2016-09-14T00:11:15.592Z,76.01
2016-09-14T00:11:56.186Z,76.4
2016-09-14T00:12:36.765Z,76.11
2016-09-14T00:13:19.341Z,76.5
2016-09-14T00:13:59.969Z,76.4
2016-09-14T00:14:40.463Z,76.88
2016-09-14T00:15:22.858Z,76.59
2016-09-14T00:16:05.082Z,77.08
2016-09-14T00:16:45.630Z,76.98
2016-09-14T00:17:26.207Z,76.78
2016-09-14T00:18:06.847Z,76.78
2016-09-14T00:18:48.352Z,76.78
2016-09-14T00:19:30.596Z,76.98
2016-09-14T00:20:11.108Z,76.78
2016-09-14T00:20:51.641Z,77.36
2016-09-14T00:21:32.349Z,77.26
2016-09-14T00:22:14.995Z,77.08
2016-09-14T00:22:55.571Z,77.23
2016-09-14T00:23:36.103Z,77.04
2016-09-14T00:24:16.712Z,77.61
2016-09-14T00:24:57.234Z,77.61
2016-09-14T00:25:37.822Z,77.61
2016-09-14T00:26:18.315Z,77.36
2016-09-14T00:26:58.924Z,77.13
2016-09-14T00:27:39.515Z,77.51
2016-09-14T00:28:19.971Z,77.46
2016-09-14T00:29:00.507Z,77.04
2016-09-14T00:29:41.047Z,77.13
2016-09-14T00:30:21.548Z,77.13
2016-09-14T00:31:02.173Z,76.84
2016-09-14T00:31:44.350Z,76.78
2016-09-14T00:32:24.852Z,77.04
2016-09-14T00:33:05.359Z,77.23
2016-09-14T00:33:46.836Z,77.23
2016-09-14T00:34:27.406Z,77.51
2016-09-14T00:35:07.886Z,77.33
2016-09-14T00:35:48.392Z,77.23
2016-09-14T00:36:31.882Z,77.51
2016-09-14T00:37:12.521Z,77.33
2016-09-14T00:37:54.776Z,77.42
2016-09-14T00:38:35.259Z,77.51
2016-09-14T00:39:15.881Z,77.42
2016-09-14T00:39:56.415Z,77.61
2016-09-14T00:40:37.006Z,77.51
2016-09-14T00:41:20.894Z,77.42
2016-09-14T00:42:01.546Z,77.9
2016-09-14T00:42:42.184Z,78
2016-09-14T00:43:22.699Z,78.19
2016-09-14T00:44:03.219Z,78.28
2016-09-14T00:44:43.855Z,78.38
2016-09-14T00:45:24.374Z,78.77
2016-09-14T00:46:04.952Z,78.67
2016-09-14T00:46:45.517Z,78.58
2016-09-14T00:47:26.074Z,79.05
2016-09-14T00:48:08.236Z,79.05
2016-09-14T00:48:48.755Z,79.05
2016-09-14T00:49:29.260Z,78.77
2016-09-14T00:50:09.790Z,79.15
2016-09-14T00:50:50.337Z,79.44
2016-09-14T00:51:32.913Z,79.35
2016-09-14T00:52:13.418Z,79.53
2016-09-14T00:52:54.012Z,79.44
2016-09-14T00:53:36.346Z,79.35
2016-09-14T00:54:16.887Z,79.53
2016-09-14T00:54:57.415Z,78.86
2016-09-14T00:55:38.021Z,79.02
2016-09-14T00:56:18.552Z,79.35
2016-09-14T00:56:59.076Z,79.02
2016-09-14T00:57:39.732Z,79.44
2016-09-14T00:58:22.263Z,79.25
2016-09-14T00:59:02.752Z,79.44
2016-09-14T00:59:43.264Z,79.79
2016-09-14T01:00:23.865Z,79.73
2016-09-14T01:01:04.416Z,79.53
2016-09-14T01:01:45.003Z,79.88
2016-09-14T01:02:25.489Z,79.69
2016-09-14T01:03:05.999Z,79.88
2016-09-14T01:03:46.599Z,79.73
2016-09-14T01:04:27.296Z,79.4
2016-09-14T01:05:07.803Z,80.46
2016-09-14T01:05:49.964Z,80.17
2016-09-14T01:06:34.923Z,80.46
2016-09-14T01:07:15.488Z,80.07
2016-09-14T01:07:56.005Z,80.17
2016-09-14T01:08:36.566Z,80.27
2016-09-14T01:09:17.183Z,79.98
2016-09-14T01:09:57.668Z,80.27
2016-09-14T01:10:38.199Z,80.17
2016-09-14T01:11:18.802Z,80.55
2016-09-14T01:11:59.298Z,79.98
2016-09-14T01:12:39.913Z,80.36
2016-09-14T01:13:20.556Z,80.17
2016-09-14T01:14:01.084Z,80.07
2016-09-14T01:14:41.644Z,80.17
2016-09-14T01:15:22.186Z,80.17
2016-09-14T01:16:02.778Z,80.27
2016-09-14T01:16:43.293Z,80.46
2016-09-14T01:17:23.900Z,80.36
2016-09-14T01:18:04.425Z,80.27
2016-09-14T01:18:45.097Z,80.65
2016-09-14T01:19:25.585Z,80.75
2016-09-14T01:20:06.285Z,80.46
2016-09-14T01:20:46.825Z,80.75
2016-09-14T01:21:27.393Z,80.55
2016-09-14T01:22:07.987Z,81.32
2016-09-14T01:22:48.551Z,81.23
2016-09-14T01:23:29.105Z,81.23
2016-09-14T01:24:09.750Z,81.32
2016-09-14T01:24:50.265Z,81.9
2016-09-14T01:25:30.782Z,81.9
2016-09-14T01:26:11.292Z,82.09
2016-09-14T01:26:51.818Z,81.52
2016-09-14T01:27:32.316Z,82.19
2016-09-14T01:28:12.839Z,81.99
2016-09-14T01:28:53.474Z,82.19
2016-09-14T01:29:34.059Z,82.63
2016-09-14T01:30:14.616Z,82.38
2016-09-14T01:30:55.129Z,82.43
2016-09-14T01:31:35.853Z,82.09
2016-09-14T01:32:16.378Z,81.96
2016-09-14T01:32:56.907Z,82.24
2016-09-14T01:33:37.461Z,82.38
2016-09-14T01:34:18.171Z,81.96
2016-09-14T01:35:00.309Z,82.29
2016-09-14T01:35:40.931Z,82.43
2016-09-14T01:36:21.529Z,82.43
2016-09-14T01:37:02.055Z,81.71
2016-09-14T01:37:42.658Z,82.38
2016-09-14T01:38:24.842Z,81.67
2016-09-14T01:39:05.363Z,81.99
2016-09-14T01:39:45.920Z,81.9
2016-09-14T01:40:26.440Z,81.9
2016-09-14T01:41:07.165Z,81.13
2016-09-14T01:41:47.725Z,81.71
2016-09-14T01:42:28.330Z,81.04
2016-09-14T01:43:10.499Z,81.23
2016-09-14T01:43:52.589Z,81.32
2016-09-14T01:44:33.188Z,81.52
2016-09-14T01:45:13.803Z,81.48
2016-09-14T01:45:56.159Z,81.32
2016-09-14T01:46:36.698Z,81.13
2016-09-14T01:47:17.269Z,81.13
2016-09-14T01:47:59.539Z,81.13
2016-09-14T01:48:40.148Z,80.71
2016-09-14T01:49:20.769Z,80.75
2016-09-14T01:50:01.320Z,80.65
2016-09-14T01:50:41.839Z,80.65
2016-09-14T01:51:22.595Z,81.52
2016-09-14T01:52:03.327Z,80.9
2016-09-14T01:52:43.830Z,81.32
2016-09-14T01:53:24.552Z,80.84
2016-09-14T01:54:05.038Z,81.61
2016-09-14T01:54:45.580Z,80.75
2016-09-14T01:55:26.146Z,81.32
2016-09-14T01:56:06.700Z,80.65
2016-09-14T01:56:49.177Z,80.65
2016-09-14T01:57:29.800Z,80.55
2016-09-14T01:58:10.313Z,80.94
2016-09-14T01:58:50.909Z,80.94
2016-09-14T01:59:31.477Z,80.94
2016-09-14T02:00:12.008Z,80.55
2016-09-14T02:00:52.675Z,80.55
2016-09-14T02:01:33.220Z,80.27
2016-09-14T02:02:13.831Z,80.46
2016-09-14T02:02:54.371Z,80.36
2016-09-14T02:03:35.029Z,80.46
2016-09-14T02:04:15.631Z,80.55
2016-09-14T02:04:56.235Z,80.55
2016-09-14T02:05:39.583Z,80.17
2016-09-14T02:06:20.163Z,80.36
2016-09-14T02:07:00.667Z,80.07
2016-09-14T02:07:41.221Z,80.55
2016-09-14T02:08:21.802Z,80.27
2016-09-14T02:09:02.512Z,80.17
2016-09-14T02:09:47.589Z,80.27
2016-09-14T02:10:28.225Z,80.17
2016-09-14T02:11:08.833Z,80.27
2016-09-14T02:11:49.312Z,80.46
2016-09-14T02:12:29.901Z,80.94
2016-09-14T02:13:10.470Z,80.75
2016-09-14T02:13:52.777Z,80.55
2016-09-14T02:14:33.328Z,80.99
2016-09-14T02:15:13.962Z,81.67
2016-09-14T02:15:54.470Z,81.48
2016-09-14T02:16:35.001Z,81.19
2016-09-14T02:17:15.510Z,81.09
2016-09-14T02:17:56.151Z,81.19
2016-09-14T02:18:36.743Z,81.48
2016-09-14T02:19:17.317Z,81.67
2016-09-14T02:19:57.927Z,81.67
2016-09-14T02:20:38.521Z,81.48
2016-09-14T02:21:20.580Z,81.38
2016-09-14T02:22:01.114Z,81.57
2016-09-14T02:22:41.757Z,81.38
2016-09-14T02:23:24.083Z,81.96
2016-09-14T02:24:06.527Z,82.05
2016-09-14T02:24:47.063Z,81.67
2016-09-14T02:25:27.612Z,81.67
2016-09-14T02:26:08.146Z,81.86
2016-09-14T02:26:48.655Z,81.28
2016-09-14T02:27:29.303Z,81.28
2016-09-14T02:28:09.809Z,81.96
2016-09-14T02:28:50.400Z,81.86
2016-09-14T02:29:30.996Z,81.86
2016-09-14T02:30:13.414Z,82.05
2016-09-14T02:30:53.922Z,81.57
2016-09-14T02:31:34.482Z,82.05
2016-09-14T02:32:15.115Z,81.96
2016-09-14T02:32:55.658Z,81.86
2016-09-14T02:33:36.135Z,82.24
2016-09-14T02:34:16.696Z,81.67
2016-09-14T02:34:57.288Z,82.15
2016-09-14T02:35:37.878Z,82.24
2016-09-14T02:36:20.100Z,82.05
2016-09-14T02:37:00.647Z,81.86
2016-09-14T02:37:41.175Z,81.86
2016-09-14T02:38:21.831Z,81.96
2016-09-14T02:39:02.399Z,81.86
2016-09-14T02:39:42.993Z,81.96
2016-09-14T02:40:23.622Z,82.34
2016-09-14T02:41:04.242Z,82.34
2016-09-14T02:41:44.909Z,82.34
2016-09-14T02:42:25.424Z,82.05
2016-09-14T02:43:06.043Z,82.24
2016-09-14T02:43:46.604Z,82.15
2016-09-14T02:44:27.175Z,82.24
2016-09-14T02:45:07.708Z,81.96
2016-09-14T02:45:48.206Z,82.34
2016-09-14T02:46:28.852Z,82.15
2016-09-14T02:47:09.360Z,81.96
2016-09-14T02:47:49.909Z,81.96
2016-09-14T02:48:30.495Z,82.34
2016-09-14T02:49:11.062Z,81.67
2016-09-14T02:49:51.740Z,81.48
2016-09-14T02:50:32.310Z,81.57
2016-09-14T02:51:12.871Z,81.48
2016-09-14T02:51:53.442Z,81.96
2016-09-14T02:52:34.043Z,82.15
2016-09-14T02:53:14.621Z,82.34
2016-09-14T02:53:55.161Z,82.05
2016-09-14T02:54:35.747Z,82.53
2016-09-14T02:55:16.299Z,82.63
2016-09-14T02:55:56.825Z,82.1
2016-09-14T02:56:37.340Z,82.49
2016-09-14T02:57:17.935Z,82.43
2016-09-14T02:57:58.453Z,82.15
2016-09-14T02:58:40.741Z,82.34
2016-09-14T02:59:21.368Z,81.96
2016-09-14T03:00:01.825Z,82.24
2016-09-14T03:00:42.430Z,82.1
2016-09-14T03:01:22.945Z,82.34
2016-09-14T03:02:03.533Z,82.24
2016-09-14T03:02:44.033Z,82.01
2016-09-14T03:03:24.573Z,82.2
2016-09-14T03:04:05.239Z,82.87
2016-09-14T03:04:48.634Z,83.07
2016-09-14T03:05:29.261Z,83.07
2016-09-14T03:06:09.952Z,83.07
2016-09-14T03:06:50.543Z,82.87
2016-09-14T03:07:31.083Z,83.26
2016-09-14T03:08:11.644Z,83.07
2016-09-14T03:08:52.303Z,83.54
2016-09-14T03:09:32.878Z,83.16
2016-09-14T03:10:13.510Z,83.93
2016-09-14T03:10:54.093Z,83.84
2016-09-14T03:11:34.579Z,83.84
2016-09-14T03:12:16.818Z,83.84
2016-09-14T03:12:57.452Z,84.03
2016-09-14T03:13:37.976Z,83.93
2016-09-14T03:14:18.543Z,84.03
2016-09-14T03:14:59.087Z,83.93
2016-09-14T03:15:39.627Z,83.64
2016-09-14T03:16:20.196Z,83.64
2016-09-14T03:17:00.761Z,84.12
2016-09-14T03:17:41.311Z,83.93
2016-09-14T03:19:16.965Z,84.6
2016-09-14T03:19:57.494Z,84.51
2016-09-14T03:20:38.035Z,84.31
2016-09-14T03:21:18.583Z,84.6
2016-09-14T03:21:59.127Z,84.8
2016-09-14T03:22:39.705Z,84.8
2016-09-14T03:23:20.189Z,84.22
2016-09-14T03:24:00.698Z,84.7
2016-09-14T03:24:41.338Z,84.89
2016-09-14T03:25:21.859Z,84.89
2016-09-14T03:26:02.395Z,85.08
2016-09-14T03:26:42.915Z,84.89
2016-09-14T03:27:23.450Z,85.08
2016-09-14T03:28:03.937Z,85.08
2016-09-14T03:28:44.418Z,84.89
2016-09-14T03:29:24.949Z,84.99
2016-09-14T03:30:05.486Z,85.18
2016-09-14T03:30:46.091Z,84.99
2016-09-14T03:31:26.584Z,84.6
2016-09-14T03:32:07.045Z,84.99
2016-09-14T03:32:47.539Z,84.99
2016-09-14T03:33:28.048Z,85.08
2016-09-14T03:34:08.588Z,85.08
2016-09-14T03:34:49.061Z,84.99
2016-09-14T03:35:29.587Z,85.08
2016-09-14T03:36:10.062Z,84.89
2016-09-14T03:36:50.611Z,85.18
2016-09-14T03:37:31.103Z,85.28
2016-09-14T03:38:11.621Z,84.99
2016-09-14T03:38:52.159Z,84.89
2016-09-14T03:39:32.642Z,85.28
2016-09-14T03:40:13.252Z,84.41
2016-09-14T03:40:53.710Z,84.7
2016-09-14T03:41:34.256Z,84.51
2016-09-14T03:42:14.782Z,84.22
2016-09-14T03:42:55.266Z,84.51
2016-09-14T03:43:35.795Z,84.41
2016-09-14T03:44:16.277Z,84.51
2016-09-14T03:44:56.793Z,84.51
2016-09-14T03:45:37.368Z,84.51
2016-09-14T03:46:17.905Z,84.7
2016-09-14T03:46:58.455Z,84.22
2016-09-14T03:47:39.007Z,84.7
2016-09-14T03:48:19.547Z,85.08
2016-09-14T03:49:00.092Z,84.89
2016-09-14T03:49:40.614Z,84.99
2016-09-14T03:50:21.170Z,85.08
2016-09-14T03:51:01.691Z,85.28
2016-09-14T03:51:42.281Z,84.99
2016-09-14T03:52:22.757Z,85.08
2016-09-14T03:53:03.293Z,85.18
2016-09-14T03:53:43.957Z,84.95
2016-09-14T03:54:24.816Z,85.37
2016-09-14T03:55:05.611Z,85.66
2016-09-14T03:55:46.366Z,85.71
2016-09-14T03:56:26.806Z,85.33
2016-09-14T03:57:07.331Z,85.42
2016-09-14T03:57:47.880Z,85.14
2016-09-14T03:58:28.405Z,85.81
2016-09-14T03:59:08.943Z,85.47
2016-09-14T03:59:49.510Z,85.37
2016-09-14T04:00:30.054Z,85.42
2016-09-14T04:01:10.512Z,85.81
2016-09-14T04:01:51.114Z,85.75
2016-09-14T04:02:31.565Z,85.75
2016-09-14T04:03:12.095Z,85.28
2016-09-14T04:03:52.709Z,85.66
2016-09-14T04:04:33.176Z,85.75
2016-09-14T04:05:13.713Z,85.66
2016-09-14T04:05:54.265Z,85.57
2016-09-14T04:06:34.751Z,85.75
2016-09-14T04:07:15.296Z,85.47
2016-09-14T04:07:55.851Z,85.66
2016-09-14T04:08:36.313Z,85.57
2016-09-14T04:09:16.896Z,85.57
2016-09-14T04:09:57.447Z,85.57
2016-09-14T04:10:37.951Z,85.57
2016-09-14T04:11:18.488Z,86.24
2016-09-14T04:11:59.014Z,85.52
2016-09-14T04:13:20.097Z,85.37
2016-09-14T04:14:00.643Z,85.66
2016-09-14T04:14:41.348Z,86.05
2016-09-14T04:15:21.874Z,85.52
2016-09-14T04:16:02.351Z,85.42
2016-09-14T04:16:43.011Z,85.57
2016-09-14T04:17:23.524Z,85.52
2016-09-14T04:18:04.078Z,85.52
2016-09-14T04:18:44.620Z,85.52
2016-09-14T04:19:25.264Z,85.52
2016-09-14T04:20:05.769Z,85.71
2016-09-14T04:20:46.301Z,85.42
2016-09-14T04:21:26.888Z,85.42
2016-09-14T04:22:07.419Z,85.33
2016-09-14T04:22:47.979Z,85.71
2016-09-14T04:23:28.492Z,85.42
2016-09-14T04:24:09.056Z,85.91
2016-09-14T04:24:49.529Z,85.33
2016-09-14T04:25:30.058Z,85.33
2016-09-14T04:26:10.539Z,85.33
2016-09-14T04:26:51.115Z,85.37
2016-09-14T04:27:31.599Z,85.85
2016-09-14T04:28:12.122Z,85.91
2016-09-14T04:28:52.789Z,85.66
2016-09-14T04:29:33.290Z,85.57
2016-09-14T04:30:13.819Z,86.05
2016-09-14T04:30:54.343Z,85.81
2016-09-14T04:31:34.904Z,86
2016-09-14T04:32:15.401Z,85.71
2016-09-14T04:32:55.916Z,86
2016-09-14T04:33:36.473Z,85.91
2016-09-14T04:34:16.977Z,86
2016-09-14T04:34:57.484Z,85.81
2016-09-14T04:35:37.988Z,85.91
2016-09-14T04:36:18.563Z,85.52
2016-09-14T04:36:59.112Z,85.24
2016-09-14T04:37:39.685Z,85.04
2016-09-14T04:38:20.184Z,85.52
2016-09-14T04:39:00.694Z,85.42
2016-09-14T04:39:41.214Z,85.52
2016-09-14T04:40:21.806Z,85.42
2016-09-14T04:41:02.345Z,85.42
2016-09-14T04:41:42.853Z,85.52
2016-09-14T04:42:23.383Z,85.24
2016-09-14T04:43:03.892Z,85.52
2016-09-14T04:43:44.424Z,85.71
2016-09-14T04:44:25.804Z,85.52
2016-09-14T04:45:06.580Z,85.71
2016-09-14T04:45:47.171Z,85.37
2016-09-14T04:46:28.107Z,85.57
2016-09-14T04:47:08.638Z,84.75
2016-09-14T04:47:49.182Z,85.14
2016-09-14T04:48:30.151Z,85.04
2016-09-14T04:49:10.894Z,84.85
2016-09-14T04:49:51.226Z,84.85
2016-09-14T04:50:31.789Z,84.95
2016-09-14T04:51:12.331Z,84.85
2016-09-14T04:51:52.870Z,85.04
2016-09-14T04:52:33.421Z,84.89
2016-09-14T04:53:13.969Z,85.33
2016-09-14T04:53:54.513Z,85.28
2016-09-14T04:54:35.047Z,85.57
2016-09-14T04:55:15.588Z,84.89
2016-09-14T04:55:56.123Z,85.08
2016-09-14T04:56:36.675Z,84.89
2016-09-14T04:57:17.217Z,84.99
2016-09-14T04:57:57.778Z,84.89
2016-09-14T04:58:38.313Z,84.66
2016-09-14T04:59:18.883Z,85.33
2016-09-14T04:59:59.399Z,85.52
2016-09-14T05:00:39.988Z,85.52
2016-09-14T05:01:20.532Z,85.62
2016-09-14T05:02:01.084Z,85.42
2016-09-14T05:02:41.619Z,85.24
2016-09-14T05:03:22.140Z,86
2016-09-14T05:04:02.689Z,85.81
2016-09-14T05:04:43.232Z,85.71
2016-09-14T05:05:23.773Z,85.81
2016-09-14T05:06:04.324Z,86
2016-09-14T05:06:44.874Z,85.33
2016-09-14T05:07:25.412Z,85.33
2016-09-14T05:08:05.954Z,85.62
2016-09-14T05:08:46.498Z,85.42
2016-09-14T05:09:27.031Z,85.71
2016-09-14T05:10:07.574Z,85.42
2016-09-14T05:10:48.120Z,85.62
2016-09-14T05:11:28.660Z,85.33
2016-09-14T05:12:09.203Z,85.62
2016-09-14T05:12:49.737Z,85.91
2016-09-14T05:13:30.288Z,85.71
2016-09-14T05:14:10.837Z,86
2016-09-14T05:14:51.379Z,85.81
2016-09-14T05:15:31.898Z,85.91
2016-09-14T05:16:12.451Z,86
2016-09-14T05:16:52.985Z,85.81
2016-09-14T05:17:33.531Z,86
2016-09-14T05:18:14.079Z,85.91
2016-09-14T05:18:54.630Z,86
2016-09-14T05:19:35.180Z,86.19
2016-09-14T05:20:15.728Z,86.29
2016-09-14T05:20:56.280Z,86.29
2016-09-14T05:21:36.824Z,86.38
2016-09-14T05:22:17.375Z,86
2016-09-14T05:22:57.918Z,86.38
2016-09-14T05:23:38.463Z,86.29
2016-09-14T05:24:18.998Z,86
2016-09-14T05:24:59.541Z,86.68
2016-09-14T05:25:40.079Z,86.77
2016-09-14T05:26:20.619Z,86.68
2016-09-14T05:27:01.197Z,86.44
2016-09-14T05:27:41.742Z,86.58
2016-09-14T05:28:22.283Z,86.68
2016-09-14T05:29:02.835Z,87.3
2016-09-14T05:29:43.383Z,87.01
2016-09-14T05:30:23.916Z,87.15
2016-09-14T05:31:04.465Z,86.92
2016-09-14T05:31:45.029Z,87.35
2016-09-14T05:32:25.577Z,87.05
2016-09-14T05:33:06.119Z,87.3
2016-09-14T05:33:46.655Z,87.54
2016-09-14T05:34:27.219Z,87.11
2016-09-14T05:35:07.755Z,87.11
2016-09-14T05:35:48.299Z,87.59
2016-09-14T05:36:28.847Z,87.63
2016-09-14T05:37:09.392Z,87.49
2016-09-14T05:37:49.940Z,87.59
2016-09-14T05:38:30.492Z,87.59
2016-09-14T05:39:11.039Z,87.21
2016-09-14T05:39:51.579Z,87.3
2016-09-14T05:40:32.124Z,87.54
2016-09-14T05:41:12.656Z,87.35
2016-09-14T05:41:53.209Z,87.3
2016-09-14T05:42:33.745Z,87.3
2016-09-14T05:43:14.301Z,87.54
2016-09-14T05:43:54.848Z,87.73
2016-09-14T05:44:35.390Z,87.82
2016-09-14T05:45:15.933Z,88.31
2016-09-14T05:45:56.465Z,87.98
2016-09-14T05:46:37.010Z,88.31
2016-09-14T05:47:17.560Z,87.82
2016-09-14T05:47:58.089Z,87.92
2016-09-14T05:48:38.618Z,88.02
2016-09-14T05:49:19.185Z,87.82
2016-09-14T05:49:59.732Z,88.11
2016-09-14T05:50:40.269Z,88.49
2016-09-14T05:51:20.838Z,88.69
2016-09-14T05:52:01.384Z,88.79
2016-09-14T05:52:41.929Z,88.69
2016-09-14T05:53:22.462Z,88.69
2016-09-14T05:54:03.031Z,88.69
2016-09-14T05:54:43.563Z,88.69
2016-09-14T05:55:24.111Z,88.59
2016-09-14T05:56:04.653Z,88.4
2016-09-14T05:56:45.194Z,88.31
2016-09-14T05:57:25.728Z,88.4
2016-09-14T05:58:06.278Z,88.69
2016-09-14T05:58:46.824Z,88.69
2016-09-14T05:59:27.377Z,88.79
2016-09-14T06:00:07.922Z,88.21
2016-09-14T06:00:48.470Z,88.31
2016-09-14T06:01:29.024Z,88.59
2016-09-14T06:02:09.579Z,88.98
2016-09-14T06:02:50.119Z,88.49
2016-09-14T06:03:30.665Z,88.98
2016-09-14T06:04:11.176Z,88.98
2016-09-14T06:04:51.706Z,88.88
2016-09-14T06:05:32.256Z,88.88
2016-09-14T06:06:12.790Z,88.69
2016-09-14T06:06:53.353Z,88.49
2016-09-14T06:07:33.891Z,88.49
2016-09-14T06:08:14.434Z,88.59
2016-09-14T06:08:54.981Z,88.59
2016-09-14T06:09:35.523Z,88.69
2016-09-14T06:10:16.675Z,88.4
2016-09-14T06:10:57.228Z,88.49
2016-09-14T06:11:37.779Z,88.49
2016-09-14T06:12:18.322Z,88.49
2016-09-14T06:12:58.865Z,88.4
2016-09-14T06:13:39.409Z,88.4
2016-09-14T06:14:19.957Z,88.59
2016-09-14T06:15:00.498Z,88.69
2016-09-14T06:15:41.048Z,88.79
2016-09-14T06:16:21.575Z,88.69
2016-09-14T06:17:02.114Z,88.4
2016-09-14T06:17:42.660Z,87.87
2016-09-14T06:18:23.217Z,88.02
2016-09-14T06:19:03.762Z,87.87
2016-09-14T06:19:44.309Z,88.35
2016-09-14T06:20:24.857Z,88.35
2016-09-14T06:21:05.408Z,87.87
2016-09-14T06:21:45.959Z,88.06
2016-09-14T06:22:26.512Z,88.16
2016-09-14T06:23:07.060Z,87.68
2016-09-14T06:23:47.627Z,87.68
2016-09-14T06:24:28.175Z,87.1
2016-09-14T06:25:08.719Z,87.39
2016-09-14T06:25:49.267Z,87.58
2016-09-14T06:26:29.815Z,87.39
2016-09-14T06:27:10.402Z,86.81
2016-09-14T06:27:50.948Z,86.81
2016-09-14T06:28:31.558Z,87.29
2016-09-14T06:29:12.109Z,87.1
2016-09-14T06:29:52.663Z,87.19
2016-09-14T06:30:33.244Z,87.49
2016-09-14T06:31:13.773Z,87.39
2016-09-14T06:31:54.323Z,86.81
2016-09-14T06:32:34.897Z,86.52
2016-09-14T06:33:15.438Z,86.81
2016-09-14T06:33:55.983Z,86.43
2016-09-14T06:34:36.534Z,86.85
2016-09-14T06:35:17.083Z,86.85
2016-09-14T06:35:57.632Z,86.09
2016-09-14T06:36:38.181Z,86.66
2016-09-14T06:37:18.733Z,86.28
2016-09-14T06:37:59.283Z,85.89
2016-09-14T06:38:39.822Z,85.8
2016-09-14T06:39:20.368Z,85.61
2016-09-14T06:40:00.912Z,85.41
2016-09-14T06:40:41.463Z,86.09
2016-09-14T06:41:22.013Z,85.8
2016-09-14T06:42:02.562Z,86.04
2016-09-14T06:42:43.113Z,85.55
2016-09-14T06:43:23.661Z,85.75
2016-09-14T06:44:04.216Z,85.46
2016-09-14T06:44:44.773Z,85.41
2016-09-14T06:45:25.318Z,85.8
2016-09-14T06:46:05.868Z,85.22
2016-09-14T06:46:46.417Z,84.98
2016-09-14T06:47:26.957Z,85.36
2016-09-14T06:48:07.508Z,85.17
2016-09-14T06:48:48.050Z,85.07
2016-09-14T06:49:28.602Z,84.98
2016-09-14T06:50:09.148Z,85.07
2016-09-14T06:50:49.692Z,84.78
2016-09-14T06:51:30.237Z,84.98
2016-09-14T06:52:10.784Z,84.78
2016-09-14T06:52:51.330Z,84.98
2016-09-14T06:53:31.876Z,85.27
2016-09-14T06:54:12.423Z,84.98
2016-09-14T06:54:52.971Z,84.78
2016-09-14T06:55:33.523Z,85.07
2016-09-14T06:56:14.066Z,84.59
2016-09-14T06:56:54.618Z,84.3
2016-09-14T06:57:35.156Z,84.5
2016-09-14T06:58:15.704Z,84.59
2016-09-14T06:58:56.257Z,84.59
2016-09-14T06:59:36.805Z,84.69
2016-09-14T07:00:17.357Z,84.63
2016-09-14T07:00:57.910Z,84.06
2016-09-14T07:01:38.467Z,84.16
2016-09-14T07:02:19.014Z,83.86
2016-09-14T07:02:59.562Z,84.34
2016-09-14T07:03:40.113Z,83.86
2016-09-14T07:04:20.663Z,83.19
2016-09-14T07:05:01.214Z,83.58
2016-09-14T07:05:41.760Z,82.81
2016-09-14T07:06:22.308Z,83
2016-09-14T07:07:02.865Z,83.19
2016-09-14T07:07:43.413Z,82.61
2016-09-14T07:08:23.968Z,82.46
2016-09-14T07:09:04.520Z,82.27
2016-09-14T07:09:45.070Z,82.17
2016-09-14T07:10:25.623Z,81.79
2016-09-14T07:11:06.171Z,81.79
2016-09-14T07:11:46.722Z,82.08
2016-09-14T07:12:27.277Z,81.6
2016-09-14T07:13:07.824Z,81.3
2016-09-14T07:13:48.375Z,81.12
2016-09-14T07:14:28.931Z,81.02
2016-09-14T07:15:09.477Z,80.48
2016-09-14T07:15:50.032Z,80.48
2016-09-14T07:16:30.581Z,80.29
2016-09-14T07:17:11.128Z,80.25
2016-09-14T07:17:51.681Z,80.68
2016-09-14T07:18:32.227Z,80
2016-09-14T07:19:12.783Z,79.81
2016-09-14T07:19:53.333Z,80
2016-09-14T07:20:33.904Z,79.9
2016-09-14T07:21:14.440Z,80.1
2016-09-14T07:21:54.988Z,80.1
2016-09-14T07:22:35.539Z,79.61
2016-09-14T07:23:16.087Z,79.33
2016-09-14T07:23:56.626Z,79.23
2016-09-14T07:24:37.169Z,79.52
2016-09-14T07:25:17.743Z,79.43
2016-09-14T07:25:58.295Z,79.43
2016-09-14T07:26:38.842Z,79.43
2016-09-14T07:27:19.387Z,79.33
2016-09-14T07:27:59.937Z,79.33
2016-09-14T07:28:40.495Z,79.33
2016-09-14T07:29:21.045Z,79.27
2016-09-14T07:30:01.598Z,79.17
2016-09-14T07:30:42.147Z,79.46
2016-09-14T07:31:22.694Z,79.75
2016-09-14T07:32:03.243Z,79.56
2016-09-14T07:32:43.795Z,79.36
2016-09-14T07:33:24.344Z,79.36
2016-09-14T07:34:04.897Z,79.56
2016-09-14T07:34:45.448Z,79.46
2016-09-14T07:35:26.009Z,79.36
2016-09-14T07:36:06.556Z,78.79
2016-09-14T07:36:47.106Z,79.08
2016-09-14T07:37:27.656Z,78.69
2016-09-14T07:38:08.207Z,79.17
2016-09-14T07:38:48.757Z,78.5
2016-09-14T07:39:29.307Z,78.79
2016-09-14T07:40:09.860Z,78.69
2016-09-14T07:40:50.410Z,78.06
2016-09-14T07:41:30.963Z,78.06
2016-09-14T07:42:11.516Z,77.58
2016-09-14T07:42:52.065Z,77.96
2016-09-14T07:43:32.614Z,77.58
2016-09-14T07:44:13.166Z,77.38
2016-09-14T07:44:53.715Z,77.19
2016-09-14T07:45:34.267Z,77.28
2016-09-14T07:46:14.817Z,77.28
2016-09-14T07:46:55.368Z,76.9
2016-09-14T07:47:35.918Z,77.48
2016-09-14T07:48:16.470Z,77.28
2016-09-14T07:48:57.013Z,77.09
2016-09-14T07:49:37.568Z,77.33
2016-09-14T07:50:18.126Z,76.17
2016-09-14T07:50:58.675Z,75.97
2016-09-14T07:51:39.227Z,75.97
2016-09-14T07:52:19.778Z,75.59
2016-09-14T07:53:00.328Z,74.82
2016-09-14T07:53:40.876Z,74.33
2016-09-14T07:54:21.430Z,73.66
2016-09-14T07:55:01.979Z,73.37
2016-09-14T07:55:42.543Z,73.89
2016-09-14T07:56:23.095Z,73.31
2016-09-14T07:57:03.642Z,72.83
2016-09-14T07:57:44.196Z,72.63
2016-09-14T07:58:24.754Z,72.73
2016-09-14T07:59:05.306Z,71.96
2016-09-14T07:59:45.855Z,71.96
2016-09-14T08:00:26.407Z,72.25
2016-09-14T08:01:06.951Z,71.96
2016-09-14T08:01:47.500Z,71.67
2016-09-14T08:02:28.044Z,71.28
2016-09-14T08:03:08.595Z,71.77
2016-09-14T08:03:49.145Z,71.03
2016-09-14T08:04:29.692Z,71.32
2016-09-14T08:05:10.243Z,71.12
2016-09-14T08:05:50.794Z,71.51
2016-09-14T08:06:31.335Z,71.12
2016-09-14T08:07:11.888Z,71.12
2016-09-14T08:07:52.438Z,70.26
2016-09-14T08:08:32.990Z,70.36
2016-09-14T08:09:13.547Z,69.78
2016-09-14T08:09:54.097Z,69.81
2016-09-14T08:10:34.646Z,70.1
2016-09-14T08:11:15.198Z,70.1
2016-09-14T08:11:55.748Z,69.71
2016-09-14T08:12:36.306Z,69.9
2016-09-14T08:13:16.850Z,69.42
2016-09-14T08:13:57.400Z,69.52
2016-09-14T08:14:37.953Z,68.65
2016-09-14T08:15:18.503Z,68.07
2016-09-14T08:15:59.056Z,67.78
2016-09-14T08:16:39.605Z,67.97
2016-09-14T08:17:20.161Z,67.62
2016-09-14T08:18:00.707Z,67.72
2016-09-14T08:18:41.258Z,67.91
2016-09-14T08:19:21.803Z,67.82
2016-09-14T08:20:02.354Z,67.72
2016-09-14T08:20:42.903Z,67.33
2016-09-14T08:21:23.457Z,66.94
2016-09-14T08:22:04.008Z,66.46
2016-09-14T08:22:44.586Z,66.46
2016-09-14T08:23:25.126Z,66.56
2016-09-14T08:24:05.679Z,66.27
2016-09-14T08:24:46.221Z,65.98
2016-09-14T08:25:26.771Z,65.88
2016-09-14T08:26:07.340Z,65.63
2016-09-14T08:26:47.889Z,66.01
2016-09-14T08:27:28.443Z,65.24
2016-09-14T08:28:08.979Z,64.85
2016-09-14T08:28:49.526Z,65.34
2016-09-14T08:29:30.076Z,64.27
2016-09-14T08:30:10.628Z,64.01
2016-09-14T08:30:51.179Z,64.11
2016-09-14T08:31:31.727Z,64.01
2016-09-14T08:32:12.278Z,63.92
2016-09-14T08:32:52.832Z,63.34
2016-09-14T08:33:33.380Z,63.05
2016-09-14T08:34:13.931Z,63.05
2016-09-14T08:34:54.478Z,63.37
2016-09-14T08:35:35.029Z,62.88
2016-09-14T08:36:15.579Z,62.4
2016-09-14T08:36:56.132Z,62.21
2016-09-14T08:37:36.682Z,61.33
2016-09-14T08:38:17.231Z,61.15
2016-09-14T08:38:57.784Z,61.08
2016-09-14T08:39:38.338Z,60.78
2016-09-14T08:40:18.887Z,60.59
2016-09-14T08:40:59.435Z,60.4
2016-09-14T08:41:39.990Z,60.5
2016-09-14T08:42:20.539Z,59.91
2016-09-14T08:43:01.095Z,59.66
2016-09-14T08:43:41.644Z,59.53
2016-09-14T08:44:22.196Z,59.56
2016-09-14T08:45:02.752Z,59.66
2016-09-14T08:45:43.315Z,59.56
2016-09-14T08:46:23.870Z,59.27
2016-09-14T08:47:04.422Z,58.88